createdAt,value
2022-09-15T00:02:10.413Z,989.96
2022-09-15T00:07:10.073Z,990.02
2022-09-15T00:12:10.023Z,990.07
2022-09-15T00:17:10.004Z,990.03
2022-09-15T00:22:09.864Z,990.09
2022-09-15T00:27:09.839Z,990.19
2022-09-15T00:32:09.967Z,990.21
2022-09-15T00:37:09.746Z,990.22
2022-09-15T00:42:09.634Z,990.21
2022-09-15T00:47:19.083Z,990.11
2022-09-15T00:52:10.465Z,990.15
2022-09-15T00:57:09.441Z,990.20
2022-09-15T01:02:09.381Z,990.38
2022-09-15T01:07:09.309Z,990.32
2022-09-15T01:12:09.226Z,990.35
2022-09-15T01:17:09.140Z,990.36
2022-09-15T01:22:09.068Z,990.41
2022-09-15T01:27:24.442Z,990.47
2022-09-15T01:32:09.958Z,990.44
2022-09-15T01:37:08.906Z,990.49
2022-09-15T01:42:08.882Z,990.57
2022-09-15T01:47:08.774Z,990.50
2022-09-15T01:52:08.933Z,990.43
2022-09-15T01:57:08.634Z,990.46
2022-09-15T02:02:08.610Z,990.36
2022-09-15T02:07:08.497Z,990.53
2022-09-15T02:12:08.481Z,990.48
2022-09-15T02:17:08.372Z,990.44
2022-09-15T02:22:08.291Z,990.47
2022-09-15T02:27:08.261Z,990.48
2022-09-15T02:32:08.233Z,990.57
2022-09-15T02:37:08.099Z,990.53
2022-09-15T02:42:08.024Z,990.55
2022-09-15T02:47:07.981Z,990.58
2022-09-15T02:52:07.901Z,990.66
2022-09-15T02:57:08.004Z,990.69
2022-09-15T03:02:07.769Z,990.64
2022-09-15T03:07:07.734Z,990.65
2022-09-15T03:12:07.617Z,990.54
2022-09-15T03:17:07.597Z,990.69
2022-09-15T03:22:07.515Z,990.61
2022-09-15T03:27:07.513Z,990.61
2022-09-15T03:32:07.384Z,990.68
2022-09-15T03:37:07.308Z,990.64
2022-09-15T03:42:07.246Z,990.59
2022-09-15T03:47:07.218Z,990.56
2022-09-15T03:52:07.113Z,990.55
2022-09-15T03:57:07.050Z,990.62
2022-09-15T04:02:07.020Z,990.64
2022-09-15T04:07:06.970Z,990.59
2022-09-15T04:12:06.976Z,990.63
2022-09-15T04:17:06.772Z,990.60
2022-09-15T04:22:06.709Z,990.73
2022-09-15T04:27:06.641Z,990.60
2022-09-15T04:32:06.621Z,990.61
2022-09-15T04:37:06.536Z,990.55
2022-09-15T04:42:06.449Z,990.54
2022-09-15T04:47:06.493Z,990.63
2022-09-15T04:52:09.631Z,990.71
2022-09-15T04:57:06.282Z,990.74
2022-09-15T05:02:06.245Z,990.76
2022-09-15T05:07:06.294Z,990.78
2022-09-15T05:12:06.089Z,990.73
2022-09-15T05:17:06.004Z,990.87
2022-09-15T05:22:05.935Z,990.97
2022-09-15T05:27:05.910Z,990.96
2022-09-15T05:32:05.783Z,990.85
2022-09-15T05:37:05.708Z,990.88
2022-09-15T05:42:05.659Z,990.97
2022-09-15T05:47:05.598Z,991.01
2022-09-15T05:52:05.525Z,991.00
2022-09-15T05:57:05.483Z,990.97
2022-09-15T06:02:05.449Z,990.97
2022-09-15T06:07:05.315Z,990.91
2022-09-15T06:12:05.415Z,991.07
2022-09-15T06:17:05.211Z,991.04
2022-09-15T06:22:05.158Z,991.06
2022-09-15T06:27:05.073Z,991.07
2022-09-15T06:32:05.157Z,991.07
2022-09-15T06:37:04.940Z,991.04
2022-09-15T06:42:05.922Z,990.99
2022-09-15T06:47:04.778Z,990.96
2022-09-15T06:52:04.751Z,990.97
2022-09-15T06:57:04.691Z,990.98
2022-09-15T07:02:05.373Z,990.98
2022-09-15T07:07:04.574Z,991.04
2022-09-15T07:12:04.499Z,991.08
2022-09-15T07:17:04.703Z,991.11
2022-09-15T07:22:04.374Z,991.07
2022-09-15T07:27:04.279Z,991.09
2022-09-15T07:32:04.303Z,991.07
2022-09-15T07:37:04.193Z,991.14
2022-09-15T07:42:04.056Z,991.22
2022-09-15T07:47:04.046Z,991.24
2022-09-15T07:52:04.955Z,991.34
2022-09-15T07:57:03.895Z,991.27
2022-09-15T08:02:03.862Z,991.34
2022-09-15T08:07:03.780Z,991.36
2022-09-15T08:12:03.735Z,991.39
2022-09-15T08:17:07.022Z,991.43
2022-09-15T08:22:04.694Z,991.41
2022-09-15T08:27:03.504Z,991.44
2022-09-15T08:32:03.429Z,991.46
2022-09-15T08:37:03.338Z,991.51
2022-09-15T08:42:03.266Z,991.63
2022-09-15T08:47:03.235Z,991.59
2022-09-15T08:52:03.158Z,991.71
2022-09-15T08:57:03.070Z,991.66
2022-09-15T09:02:03.122Z,991.64
2022-09-15T09:07:02.945Z,991.72
2022-09-15T09:12:02.883Z,991.73
2022-09-15T09:17:02.852Z,991.66
2022-09-15T09:22:02.797Z,991.68
2022-09-15T09:27:02.911Z,991.71
2022-09-15T09:32:02.619Z,991.68
2022-09-15T09:37:02.579Z,991.63
2022-09-15T09:42:02.526Z,991.68
2022-09-15T09:47:02.446Z,991.57
2022-09-15T09:52:02.393Z,991.51
2022-09-15T09:57:02.323Z,991.46
2022-09-15T10:02:02.233Z,991.53
2022-09-15T10:07:02.211Z,991.48
2022-09-15T10:12:02.263Z,991.48
2022-09-15T10:17:02.161Z,991.53
2022-09-15T10:22:02.025Z,991.55
2022-09-15T10:27:02.247Z,991.49
2022-09-15T10:32:01.984Z,991.54
2022-09-15T10:37:01.914Z,991.63
2022-09-15T10:42:01.736Z,991.58
2022-09-15T10:47:01.671Z,991.58
2022-09-15T10:52:01.584Z,991.49
2022-09-15T10:57:01.523Z,991.51
2022-09-15T11:02:01.501Z,991.52
2022-09-15T11:07:01.404Z,991.45
2022-09-15T11:12:01.323Z,991.48
2022-09-15T11:17:01.253Z,991.43
2022-09-15T11:22:01.221Z,991.51
2022-09-15T11:27:01.107Z,991.39
2022-09-15T11:37:01.085Z,991.40
2022-09-15T11:42:00.948Z,991.31
2022-09-15T11:47:00.912Z,991.30
2022-09-15T11:52:00.799Z,991.23
2022-09-15T11:57:00.782Z,991.28
2022-09-15T12:02:00.700Z,991.24
2022-09-15T12:12:00.521Z,991.27
2022-09-15T12:17:00.559Z,991.28
2022-09-15T12:22:00.394Z,991.21
2022-09-15T12:27:00.341Z,991.22
2022-09-15T12:32:00.264Z,991.12
2022-09-15T12:42:00.213Z,991.20
2022-09-15T12:47:00.131Z,991.20
2022-09-15T12:52:00.068Z,991.22
2022-09-15T12:57:00.007Z,991.10
2022-09-15T13:01:59.913Z,991.20
2022-09-15T13:06:59.793Z,991.18
2022-09-15T13:11:59.772Z,991.21
2022-09-15T13:16:59.678Z,991.23
2022-09-15T13:21:59.619Z,991.25
2022-09-15T13:26:59.548Z,991.37
2022-09-15T13:31:59.479Z,991.41
2022-09-15T13:42:00.339Z,991.29
2022-09-15T13:46:59.682Z,991.28
2022-09-15T13:51:59.202Z,991.51
2022-09-15T13:56:59.172Z,991.52
2022-09-15T14:01:59.177Z,991.58
2022-09-15T14:07:00.982Z,991.51
2022-09-15T14:11:58.955Z,991.45
2022-09-15T14:16:58.968Z,991.45
2022-09-15T14:21:58.978Z,991.37
2022-09-15T14:26:58.761Z,991.40
2022-09-15T14:31:58.756Z,991.45
2022-09-15T14:36:58.635Z,991.52
2022-09-15T14:46:58.498Z,991.56
2022-09-15T14:51:58.590Z,991.55
2022-09-15T14:56:58.367Z,991.56
2022-09-15T15:01:58.368Z,991.51
2022-09-15T15:06:58.240Z,991.38
2022-09-15T15:11:58.195Z,991.40
2022-09-15T15:16:58.229Z,991.38
2022-09-15T15:21:59.378Z,991.26
2022-09-15T15:26:58.001Z,991.18
2022-09-15T15:31:57.934Z,991.31
2022-09-15T15:36:57.844Z,991.29
2022-09-15T15:41:57.879Z,991.29
2022-09-15T15:46:57.712Z,991.25
2022-09-15T15:51:57.638Z,991.22
2022-09-15T15:56:57.713Z,991.39
2022-09-15T16:01:57.633Z,991.36
2022-09-15T16:06:57.464Z,991.31
2022-09-15T16:16:58.265Z,991.35
2022-09-15T16:21:57.247Z,991.32
2022-09-15T16:26:57.226Z,991.37
2022-09-15T16:31:57.158Z,991.42
2022-09-15T16:36:57.019Z,991.46
2022-09-15T16:41:57.046Z,991.54
2022-09-15T16:46:56.977Z,991.52
2022-09-15T16:51:56.867Z,991.40
2022-09-15T16:56:56.791Z,991.39
2022-09-15T17:01:56.919Z,991.53
2022-09-15T17:06:56.646Z,991.60
2022-09-15T17:11:56.591Z,991.60
2022-09-15T17:16:56.563Z,991.61
2022-09-15T17:21:56.494Z,991.67
2022-09-15T17:26:56.405Z,991.67
2022-09-15T17:31:56.310Z,991.73
2022-09-15T17:36:56.303Z,991.79
2022-09-15T17:41:56.291Z,991.79
2022-09-15T17:46:56.196Z,991.81
2022-09-15T17:51:56.052Z,991.76
2022-09-15T17:56:55.995Z,991.82
2022-09-15T18:01:56.024Z,991.78
2022-09-15T18:06:56.044Z,991.83
2022-09-15T18:11:55.797Z,991.86
2022-09-15T18:16:55.823Z,991.94
2022-09-15T18:21:55.682Z,991.92
2022-09-15T18:26:55.607Z,991.99
2022-09-15T18:31:55.536Z,992.04
2022-09-15T18:36:55.476Z,992.04
2022-09-15T18:41:55.431Z,992.10
2022-09-15T18:46:55.317Z,992.14
2022-09-15T18:51:55.281Z,992.12
2022-09-15T18:56:55.207Z,992.16
2022-09-15T19:01:55.508Z,992.23
2022-09-15T19:06:55.084Z,992.29
2022-09-15T19:11:55.198Z,992.34
2022-09-15T19:16:58.187Z,992.23
2022-09-15T19:21:54.901Z,992.37
2022-09-15T19:26:54.790Z,992.34
2022-09-15T19:31:54.759Z,992.28
2022-09-15T19:36:54.681Z,992.35
2022-09-15T19:41:54.633Z,992.37
2022-09-15T19:46:54.521Z,992.44
2022-09-15T19:51:54.495Z,992.47
2022-09-15T19:56:54.490Z,992.45
2022-09-15T20:01:54.332Z,992.48
2022-09-15T20:06:54.285Z,992.55
2022-09-15T20:11:54.212Z,992.50
2022-09-15T20:16:57.357Z,992.57
2022-09-15T20:21:55.068Z,992.59
2022-09-15T20:26:54.019Z,992.64
2022-09-15T20:31:53.999Z,992.67
2022-09-15T20:36:53.950Z,992.56
2022-09-15T20:41:53.843Z,992.56
2022-09-15T20:46:53.750Z,992.66
2022-09-15T20:51:53.676Z,992.57
2022-09-15T20:56:53.625Z,992.69
2022-09-15T21:01:53.565Z,992.68
2022-09-15T21:06:53.467Z,992.72
2022-09-15T21:11:53.777Z,992.80
2022-09-15T21:16:53.395Z,992.82
2022-09-15T21:21:53.624Z,992.88
2022-09-15T21:26:53.282Z,992.91
2022-09-15T21:31:53.217Z,992.88
2022-09-15T21:36:53.084Z,992.87
2022-09-15T21:41:53.068Z,992.94
2022-09-15T21:46:53.083Z,993.01
2022-09-15T21:51:52.922Z,993.08
2022-09-15T21:56:52.936Z,993.09
2022-09-15T22:01:52.815Z,993.23
2022-09-15T22:06:52.739Z,993.25
2022-09-15T22:11:52.640Z,993.16
2022-09-15T22:16:52.580Z,993.33
2022-09-15T22:21:52.523Z,993.26
2022-09-15T22:26:52.625Z,993.17
2022-09-15T22:31:52.423Z,993.23
2022-09-15T22:36:52.410Z,993.19
2022-09-15T22:41:52.248Z,993.29
2022-09-15T22:46:52.193Z,993.26
2022-09-15T22:51:52.120Z,993.29
2022-09-15T22:56:52.063Z,993.39
2022-09-15T23:01:52.007Z,993.39
2022-09-15T23:06:51.910Z,993.40
2022-09-15T23:11:51.850Z,993.35
2022-09-15T23:16:51.863Z,993.35
2022-09-15T23:21:51.726Z,993.55
2022-09-15T23:26:51.798Z,993.67
2022-09-15T23:31:51.830Z,993.68
2022-09-15T23:36:51.499Z,993.61
2022-09-15T23:41:51.471Z,993.61
2022-09-15T23:46:51.485Z,993.42
2022-09-15T23:51:51.381Z,993.41
2022-09-15T23:56:51.238Z,993.38
